Time;durP1;ratioP1;P1;durP2;ratioP2;P2;SDS_P1;SDS_P2;PMS_P1;PMS_P2;Temp;Humidity;BMP_temperature;BMP_pressure;BME280_temperature;BME280_humidity;BME280_pressure;Samples;Min_cycle;Max_cycle;Signal;HPM_P1;HPM_P2
2023/01/18 00:02:09;;;;;;;10.07;4.95;;;0.40;99.90;;;;;;4968093;28;20031;-74
2023/01/18 00:04:35;;;;;;;10.00;4.68;;;0.30;99.90;;;;;;4968601;28;20030;-74
2023/01/18 00:07:00;;;;;;;7.65;4.70;;;0.30;99.90;;;;;;4967993;28;20113;-74
2023/01/18 00:09:26;;;;;;;8.25;4.72;;;0.30;99.90;;;;;;4969326;28;20031;-74
2023/01/18 00:11:52;;;;;;;11.32;5.15;;;0.30;99.90;;;;;;4976608;28;20047;-74
2023/01/18 00:14:17;;;;;;;11.63;5.10;;;0.30;99.90;;;;;;4968273;28;20035;-74
2023/01/18 00:16:43;;;;;;;10.55;4.93;;;0.30;99.90;;;;;;4968286;28;20446;-74
2023/01/18 00:19:12;;;;;;;10.52;5.13;;;0.30;99.90;;;;;;4998474;28;20084;-74
2023/01/18 00:21:38;;;;;;;10.23;5.57;;;0.20;99.90;;;;;;5039707;28;20032;-74
2023/01/18 00:24:05;;;;;;;8.85;4.72;;;0.20;99.90;;;;;;5046617;28;20017;-74
2023/01/18 00:26:31;;;;;;;14.80;5.25;;;0.20;99.90;;;;;;5045548;28;20528;-75
2023/01/18 00:28:56;;;;;;;9.73;5.05;;;0.30;99.90;;;;;;5038689;28;20451;-74
2023/01/18 00:31:22;;;;;;;11.02;4.78;;;0.20;99.90;;;;;;5037194;28;20658;-74
2023/01/18 00:33:49;;;;;;;12.25;5.35;;;0.20;99.90;;;;;;5032103;28;20056;-74
2023/01/18 00:36:15;;;;;;;8.68;4.53;;;0.20;99.90;;;;;;5046083;28;20021;-74
2023/01/18 00:38:43;;;;;;;9.25;4.90;;;0.20;99.90;;;;;;5052776;28;20468;-74
2023/01/18 00:41:09;;;;;;;11.38;4.88;;;0.20;99.90;;;;;;5051627;28;20033;-74
2023/01/18 00:43:37;;;;;;;9.55;4.82;;;0.20;99.90;;;;;;5050946;28;20387;-74
2023/01/18 00:46:10;;;;;;;11.25;4.95;;;0.10;99.90;;;;;;5043746;28;20048;-74
2023/01/18 00:48:40;;;;;;;8.50;4.60;;;0.10;99.90;;;;;;5037168;28;20052;-74
2023/01/18 00:51:07;;;;;;;8.35;4.20;;;0.10;99.90;;;;;;5037985;28;20029;-74
2023/01/18 00:53:33;;;;;;;9.95;4.57;;;0.10;99.90;;;;;;5036759;28;20451;-74
2023/01/18 00:55:59;;;;;;;7.82;4.30;;;0.10;99.90;;;;;;5049955;28;20033;-74
2023/01/18 00:58:24;;;;;;;10.30;4.60;;;0.10;99.90;;;;;;5051573;28;20104;-74
2023/01/18 01:00:51;;;;;;;7.75;4.47;;;0.10;99.90;;;;;;5041756;28;20486;-74
2023/01/18 01:03:18;;;;;;;10.43;4.65;;;0.10;99.90;;;;;;5037034;28;20388;-74
2023/01/18 01:08:28;;;;;;;12.57;4.50;;;0.00;99.90;;;;;;5041911;28;20499;-74
2023/01/18 01:11:05;;;;;;;7.97;4.25;;;0.00;99.90;;;;;;5042519;28;20029;-74
2023/01/18 01:27:12;;;;;;;8.88;3.90;;;0.00;99.90;;;;;;5039433;28;20120;-74
2023/01/18 01:29:38;;;;;;;9.43;4.35;;;0.00;99.90;;;;;;5042084;28;20494;-74
2023/01/18 01:32:04;;;;;;;8.68;4.22;;;0.00;99.90;;;;;;5038603;28;20029;-74
2023/01/18 01:34:30;;;;;;;11.73;4.50;;;-0.10;99.90;;;;;;5051114;28;20387;-74
2023/01/18 01:36:56;;;;;;;9.50;3.88;;;-0.10;99.90;;;;;;5038480;28;20021;-74
2023/01/18 01:39:22;;;;;;;7.93;4.50;;;0.00;99.90;;;;;;5052315;28;20096;-74
2023/01/18 01:41:48;;;;;;;9.23;4.30;;;-0.10;99.90;;;;;;5038369;28;20625;-74
2023/01/18 01:44:20;;;;;;;8.50;4.45;;;-0.10;99.90;;;;;;5041012;28;20666;-75
2023/01/18 01:46:54;;;;;;;7.55;4.35;;;-0.10;99.90;;;;;;5047261;28;20023;-74
2023/01/18 01:49:45;;;;;;;7.70;3.87;;;-0.10;99.90;;;;;;5050696;28;20068;-74
2023/01/18 01:52:19;;;;;;;12.50;3.97;;;-0.10;99.90;;;;;;5022645;28;20053;-74
2023/01/18 01:55:11;;;;;;;9.37;4.10;;;-0.20;99.90;;;;;;5033512;28;20017;-74
2023/01/18 01:57:43;;;;;;;8.38;3.72;;;-0.20;99.90;;;;;;5033629;28;20037;-74
2023/01/18 02:00:15;;;;;;;6.68;3.83;;;-0.20;99.90;;;;;;5050367;28;20039;-74
2023/01/18 02:02:43;;;;;;;10.32;4.20;;;-0.20;99.90;;;;;;5049718;28;20033;-74
2023/01/18 02:05:12;;;;;;;8.43;4.00;;;-0.20;99.90;;;;;;5049968;28;20029;-74
2023/01/18 02:07:38;;;;;;;11.35;4.70;;;-0.20;99.90;;;;;;5050763;28;20048;-74
2023/01/18 02:10:05;;;;;;;9.43;4.10;;;-0.20;99.90;;;;;;5051202;28;20056;-74
2023/01/18 02:12:31;;;;;;;8.82;4.13;;;-0.20;99.90;;;;;;5051805;28;20036;-74
2023/01/18 02:14:58;;;;;;;11.40;4.95;;;-0.20;99.90;;;;;;5044769;28;20493;-74
2023/01/18 02:17:41;;;;;;;9.05;4.43;;;-0.20;99.90;;;;;;5036034;28;20084;-74
2023/01/18 02:20:59;;;;;;;11.77;4.40;;;-0.20;99.90;;;;;;5040809;28;20025;-74
2023/01/18 02:23:43;;;;;;;10.20;4.45;;;-0.10;99.90;;;;;;5024680;28;20049;-74
2023/01/18 02:26:29;;;;;;;8.20;4.22;;;-0.10;99.90;;;;;;5035206;28;20108;-74
2023/01/18 02:28:58;;;;;;;7.43;4.38;;;-0.10;99.90;;;;;;5036167;28;20017;-74
2023/01/18 02:31:32;;;;;;;9.25;4.40;;;-0.10;99.90;;;;;;5050925;28;20036;-74
2023/01/18 02:34:29;;;;;;;9.73;4.70;;;-0.10;99.90;;;;;;5050122;28;20029;-74
2023/01/18 02:37:00;;;;;;;9.57;4.30;;;-0.10;99.90;;;;;;5031945;28;20119;-74
2023/01/18 02:39:51;;;;;;;11.88;4.38;;;0.00;99.90;;;;;;5036229;28;20033;-74
2023/01/18 02:47:54;;;;;;;10.80;4.63;;;0.10;99.90;;;;;;5041461;28;20568;-74
2023/01/18 02:50:26;;;;;;;10.35;4.60;;;0.10;99.90;;;;;;5040694;28;20112;-74
2023/01/18 02:52:52;;;;;;;9.52;4.70;;;0.20;99.90;;;;;;5046020;28;20411;-74
2023/01/18 02:55:42;;;;;;;9.55;4.28;;;0.20;99.90;;;;;;5047247;28;20033;-74
2023/01/18 02:58:23;;;;;;;7.68;4.25;;;0.30;99.90;;;;;;5047636;28;20510;-74
2023/01/18 03:01:01;;;;;;;8.15;4.20;;;0.30;99.90;;;;;;5043760;28;20531;-74
2023/01/18 03:03:27;;;;;;;10.98;4.47;;;0.30;99.90;;;;;;5037517;28;20021;-75
2023/01/18 03:05:58;;;;;;;11.35;4.60;;;0.40;99.90;;;;;;5034537;28;20420;-74
2023/01/18 03:08:47;;;;;;;9.50;4.13;;;0.30;99.90;;;;;;5036372;28;20491;-74
2023/01/18 03:11:32;;;;;;;9.73;4.50;;;0.30;99.90;;;;;;5048980;28;20024;-75
2023/01/18 03:14:09;;;;;;;;;;;0.40;99.90;;;;;;5038812;28;20032;-75
2023/01/18 03:16:58;;;;;;;9.90;4.30;;;0.30;99.90;;;;;;5050082;28;19905;-74
2023/01/18 03:23:36;;;;;;;10.95;4.22;;;0.30;99.90;;;;;;5031071;28;20035;-74
2023/01/18 03:25:15;;;;;;;8.45;4.20;;;0.30;99.90;;;;;;5033456;28;20025;-75
2023/01/18 03:36:03;;;;;;;11.90;4.28;;;0.30;99.90;;;;;;5040839;28;20047;-75
2023/01/18 03:38:30;;;;;;;12.63;5.00;;;0.30;99.90;;;;;;5044282;28;20365;-74
2023/01/18 03:40:58;;;;;;;9.82;4.38;;;0.20;99.90;;;;;;5038571;28;20021;-74
2023/01/18 03:43:26;;;;;;;9.48;4.50;;;0.20;99.90;;;;;;5033501;28;20033;-75
2023/01/18 03:45:54;;;;;;;8.90;4.25;;;0.30;99.90;;;;;;5041959;28;20025;-75
2023/01/18 03:48:20;;;;;;;10.13;4.20;;;0.30;99.90;;;;;;5047780;28;20465;-74
2023/01/18 03:50:52;;;;;;;9.55;4.55;;;0.20;99.90;;;;;;5030114;28;20078;-74
2023/01/18 03:53:42;;;;;;;8.95;4.03;;;0.30;99.90;;;;;;5044291;28;20080;-74
2023/01/18 03:56:14;;;;;;;11.93;4.57;;;0.30;99.90;;;;;;5043003;28;20025;-74
2023/01/18 03:58:41;;;;;;;10.25;4.32;;;0.30;99.90;;;;;;5042091;28;20112;-74
2023/01/18 04:01:06;;;;;;;9.82;4.68;;;0.30;99.90;;;;;;5043673;28;20029;-74
2023/01/18 04:03:33;;;;;;;8.02;4.30;;;0.30;99.90;;;;;;5040856;28;20090;-74
2023/01/18 04:06:04;;;;;;;9.80;4.53;;;0.30;99.90;;;;;;5035207;28;20101;-75
2023/01/18 04:08:30;;;;;;;12.02;4.43;;;0.30;99.90;;;;;;5041084;28;20025;-74
2023/01/18 04:10:55;;;;;;;11.27;4.35;;;0.30;99.90;;;;;;5034187;28;20109;-74
2023/01/18 04:13:21;;;;;;;12.93;4.35;;;0.30;99.90;;;;;;5048328;28;20021;-74
2023/01/18 04:15:46;;;;;;;11.23;4.15;;;0.40;99.90;;;;;;5052026;28;20474;-74
2023/01/18 04:18:12;;;;;;;7.15;3.90;;;0.40;99.90;;;;;;5052318;28;20025;-74
2023/01/18 04:20:37;;;;;;;11.98;4.20;;;0.40;99.90;;;;;;5052679;28;20017;-74
2023/01/18 04:23:03;;;;;;;8.82;4.22;;;0.40;99.90;;;;;;5034413;28;20117;-75
2023/01/18 04:25:29;;;;;;;11.90;4.15;;;0.40;99.90;;;;;;5043364;28;20029;-74
2023/01/18 04:27:54;;;;;;;9.05;4.22;;;0.40;99.90;;;;;;5040303;28;20049;-74
2023/01/18 04:30:20;;;;;;;7.43;4.07;;;0.30;99.90;;;;;;5034182;28;20025;-74
2023/01/18 04:32:46;;;;;;;8.73;4.15;;;0.40;99.90;;;;;;5048271;28;20021;-74
2023/01/18 04:35:12;;;;;;;10.85;4.03;;;0.50;99.90;;;;;;5042344;28;20468;-74
2023/01/18 04:37:38;;;;;;;7.97;3.95;;;0.50;99.90;;;;;;5049442;28;20049;-74
2023/01/18 04:40:05;;;;;;;9.40;4.32;;;0.60;99.90;;;;;;5052287;28;20429;-74
2023/01/18 04:42:30;;;;;;;8.48;4.43;;;0.60;99.90;;;;;;5051795;28;20123;-74
2023/01/18 04:44:56;;;;;;;9.38;4.03;;;0.60;99.90;;;;;;5051038;28;20048;-74
2023/01/18 04:47:22;;;;;;;9.18;3.75;;;0.60;99.90;;;;;;5009802;28;1108486;-75
2023/01/18 04:49:48;;;;;;;9.18;3.70;;;0.60;99.90;;;;;;5053035;28;20499;-75
2023/01/18 04:52:13;;;;;;;9.30;3.72;;;0.60;99.90;;;;;;5040603;28;20491;-74
2023/01/18 04:54:39;;;;;;;7.85;4.00;;;0.60;99.90;;;;;;5044990;28;20043;-74
2023/01/18 04:57:04;;;;;;;8.65;4.47;;;0.70;99.90;;;;;;5040743;28;20048;-74
2023/01/18 04:59:30;;;;;;;73.65;37.00;;;0.70;99.90;;;;;;5052322;28;20025;-75
2023/01/18 05:01:56;;;;;;;40.50;20.60;;;0.80;99.90;;;;;;5051230;28;20124;-74
2023/01/18 05:04:22;;;;;;;11.10;6.10;;;0.80;99.90;;;;;;5052280;28;20021;-74
2023/01/18 05:06:48;;;;;;;10.15;4.50;;;0.80;99.90;;;;;;5034621;28;20521;-74
2023/01/18 05:09:13;;;;;;;9.50;3.53;;;0.90;99.90;;;;;;5048708;28;20014;-74
2023/01/18 05:11:40;;;;;;;10.10;3.70;;;0.90;99.90;;;;;;5035990;28;20025;-74
2023/01/18 05:14:06;;;;;;;7.13;3.70;;;0.90;99.90;;;;;;5033009;28;20033;-74
2023/01/18 05:16:31;;;;;;;8.38;3.90;;;1.00;99.90;;;;;;5032940;28;20052;-74
2023/01/18 05:18:57;;;;;;;12.10;4.20;;;1.00;99.90;;;;;;5039241;28;20028;-74
2023/01/18 05:21:22;;;;;;;8.82;3.80;;;1.10;99.90;;;;;;5052210;28;20067;-74
2023/01/18 05:23:48;;;;;;;7.60;3.90;;;1.10;99.90;;;;;;5052191;28;20392;-74
2023/01/18 05:26:19;;;;;;;10.15;3.65;;;1.20;99.90;;;;;;5052858;28;20021;-74
2023/01/18 05:28:45;;;;;;;8.60;3.95;;;1.20;99.90;;;;;;5048370;28;20052;-74
2023/01/18 05:31:12;;;;;;;8.20;3.47;;;1.20;99.90;;;;;;5041828;28;20021;-74
2023/01/18 05:33:38;;;;;;;8.63;3.63;;;1.30;99.90;;;;;;5038974;28;20032;-74
2023/01/18 05:36:04;;;;;;;9.45;3.95;;;1.30;99.90;;;;;;5039123;28;20052;-74
2023/01/18 05:38:30;;;;;;;9.68;3.55;;;1.30;99.90;;;;;;5036793;28;20107;-74
2023/01/18 05:40:56;;;;;;;6.95;3.72;;;1.40;99.90;;;;;;5035830;28;20020;-74
2023/01/18 05:43:23;;;;;;;8.30;3.78;;;1.40;99.90;;;;;;5046117;28;20033;-74
2023/01/18 05:45:49;;;;;;;10.70;3.95;;;1.50;99.90;;;;;;5039701;28;20021;-74
2023/01/18 05:48:15;;;;;;;7.32;3.92;;;1.40;99.90;;;;;;5038689;28;20424;-74
2023/01/18 05:50:42;;;;;;;8.55;3.60;;;1.50;99.90;;;;;;5046611;28;20032;-74
2023/01/18 05:53:08;;;;;;;9.35;3.78;;;1.40;99.90;;;;;;5051178;28;20032;-74
2023/01/18 05:55:34;;;;;;;10.13;3.90;;;1.40;99.90;;;;;;5052706;28;20029;-74
2023/01/18 05:58:00;;;;;;;5.30;3.30;;;1.40;99.90;;;;;;5048044;28;20388;-74
2023/01/18 06:00:26;;;;;;;9.55;3.75;;;1.40;99.90;;;;;;5045099;28;20077;-74
2023/01/18 06:02:52;;;;;;;7.35;3.67;;;1.40;99.90;;;;;;5051785;28;20105;-74
2023/01/18 06:05:20;;;;;;;8.43;3.50;;;1.40;99.90;;;;;;5051173;28;20021;-75
2023/01/18 06:07:49;;;;;;;7.45;3.72;;;1.40;99.90;;;;;;5032253;28;20105;-74
2023/01/18 06:10:15;;;;;;;7.82;3.38;;;1.40;99.90;;;;;;5035720;28;20549;-74
2023/01/18 06:12:41;;;;;;;5.72;3.45;;;1.40;99.90;;;;;;5034792;28;20114;-74
2023/01/18 06:15:08;;;;;;;6.35;3.25;;;1.40;99.90;;;;;;5032831;28;20032;-74
2023/01/18 06:17:34;;;;;;;11.00;3.70;;;1.40;99.90;;;;;;5033778;28;20135;-74
2023/01/18 06:20:00;;;;;;;7.18;3.17;;;1.40;99.90;;;;;;5033797;28;20021;-74
2023/01/18 06:22:26;;;;;;;7.72;3.17;;;1.40;99.90;;;;;;5034401;28;20028;-74
2023/01/18 06:24:52;;;;;;;6.20;3.10;;;1.40;99.90;;;;;;5032436;28;20028;-74
2023/01/18 06:27:17;;;;;;;8.25;3.20;;;1.40;99.90;;;;;;5022121;28;20021;-74
2023/01/18 06:29:43;;;;;;;9.05;3.20;;;1.40;99.90;;;;;;5028213;28;20091;-74
2023/01/18 06:32:09;;;;;;;6.32;2.80;;;1.30;99.90;;;;;;5015747;28;20021;-74
2023/01/18 06:34:35;;;;;;;6.55;3.38;;;1.30;99.90;;;;;;5034434;28;20057;-76
2023/01/18 06:37:01;;;;;;;6.78;3.30;;;1.40;99.90;;;;;;5015875;28;20017;-74
2023/01/18 06:39:30;;;;;;;6.53;3.00;;;1.30;99.90;;;;;;5041873;28;20033;-74
2023/01/18 06:42:06;;;;;;;9.25;3.20;;;1.30;99.90;;;;;;5049168;28;20025;-74
2023/01/18 06:44:32;;;;;;;8.13;3.17;;;1.30;99.90;;;;;;5034584;28;20025;-73
2023/01/18 06:46:57;;;;;;;6.93;3.00;;;1.30;99.90;;;;;;5050080;28;20356;-74
2023/01/18 06:49:23;;;;;;;6.68;3.08;;;1.20;99.90;;;;;;5052080;28;20456;-73
2023/01/18 06:51:49;;;;;;;5.32;2.67;;;1.20;99.90;;;;;;5043026;28;20025;-74
2023/01/18 06:54:15;;;;;;;7.47;2.65;;;1.20;99.90;;;;;;5040726;28;20037;-74
2023/01/18 06:56:41;;;;;;;10.32;2.88;;;1.20;99.90;;;;;;5041996;28;20031;-74
2023/01/18 06:59:07;;;;;;;5.28;2.58;;;1.20;99.90;;;;;;5049354;28;20529;-74
2023/01/18 07:01:32;;;;;;;7.85;2.53;;;1.20;99.90;;;;;;5040507;28;20033;-74
2023/01/18 07:03:58;;;;;;;8.70;2.78;;;1.20;99.90;;;;;;5031429;28;20018;-74
2023/01/18 07:06:24;;;;;;;13.00;2.97;;;1.20;99.90;;;;;;5047281;28;20502;-74
2023/01/18 07:08:50;;;;;;;6.00;2.33;;;1.20;99.90;;;;;;5049134;28;20025;-74
2023/01/18 07:11:16;;;;;;;7.43;2.70;;;1.20;99.90;;;;;;5044997;28;20029;-74
2023/01/18 07:13:42;;;;;;;12.95;3.47;;;1.10;99.90;;;;;;5040514;28;20361;-74
2023/01/18 07:16:12;;;;;;;8.98;3.35;;;1.10;99.90;;;;;;5012795;28;20472;-74
2023/01/18 07:18:42;;;;;;;10.10;3.90;;;1.10;99.90;;;;;;5032158;28;20207;-73
2023/01/18 07:21:09;;;;;;;11.55;4.75;;;1.10;99.90;;;;;;5032195;28;20022;-74
2023/01/18 07:23:37;;;;;;;9.52;4.68;;;1.10;99.90;;;;;;5033305;28;20393;-74
2023/01/18 07:26:11;;;;;;;11.30;4.88;;;1.10;99.90;;;;;;5039130;28;20411;-74
2023/01/18 07:28:36;;;;;;;15.10;4.63;;;1.10;99.90;;;;;;5037552;28;20425;-74
2023/01/18 07:31:04;;;;;;;11.80;4.40;;;1.10;99.90;;;;;;5045900;28;20028;-74
2023/01/18 07:33:30;;;;;;;8.50;4.60;;;1.10;99.90;;;;;;5036730;28;20392;-74
2023/01/18 07:35:57;;;;;;;10.27;4.28;;;1.20;99.90;;;;;;5034504;28;20030;-74
2023/01/18 07:38:23;;;;;;;9.25;4.32;;;1.30;99.90;;;;;;5032624;28;20058;-73
2023/01/18 07:40:49;;;;;;;10.98;5.10;;;1.30;99.90;;;;;;5044326;28;20108;-73
2023/01/18 07:43:16;;;;;;;10.95;5.05;;;1.40;99.90;;;;;;5036285;28;20063;-74
2023/01/18 07:45:42;;;;;;;11.70;5.10;;;1.40;99.90;;;;;;5038515;28;20634;-73
2023/01/18 07:48:09;;;;;;;13.00;4.95;;;1.50;99.90;;;;;;5032044;28;20038;-74
2023/01/18 07:50:34;;;;;;;11.13;5.40;;;1.50;99.90;;;;;;5035922;28;20032;-74
2023/01/18 07:53:07;;;;;;;10.15;4.53;;;1.60;99.90;;;;;;5019688;28;20424;-74
2023/01/18 07:55:33;;;;;;;10.65;5.28;;;1.60;99.90;;;;;;5048801;28;20058;-74
2023/01/18 07:57:59;;;;;;;8.63;4.65;;;1.60;99.90;;;;;;5048622;28;20102;-73
2023/01/18 08:00:25;;;;;;;10.02;4.95;;;1.70;99.90;;;;;;5050219;28;20025;-74
2023/01/18 08:02:52;;;;;;;12.52;5.03;;;1.70;99.90;;;;;;5049778;28;20021;-73
2023/01/18 08:05:25;;;;;;;10.73;5.00;;;1.70;99.90;;;;;;5050114;28;20078;-73
2023/01/18 08:07:52;;;;;;;13.05;5.78;;;1.70;99.90;;;;;;5047132;28;20403;-74
2023/01/18 08:10:18;;;;;;;13.65;5.38;;;1.70;99.90;;;;;;5033552;28;20099;-74
2023/01/18 08:12:44;;;;;;;10.73;5.53;;;1.70;99.90;;;;;;5029086;28;20057;-74
2023/01/18 08:15:10;;;;;;;15.07;5.68;;;1.70;99.90;;;;;;5034285;28;20114;-73
2023/01/18 08:17:36;;;;;;;13.85;6.63;;;1.70;99.90;;;;;;5030287;28;20112;-73
2023/01/18 08:20:04;;;;;;;15.05;6.15;;;1.70;99.90;;;;;;5016942;28;20014;-74
2023/01/18 08:22:32;;;;;;;14.35;6.35;;;1.80;99.90;;;;;;5039213;28;20103;-74
2023/01/18 08:24:58;;;;;;;10.65;6.22;;;1.80;99.90;;;;;;5049985;28;20503;-74
2023/01/18 08:27:23;;;;;;;11.18;6.30;;;1.80;99.90;;;;;;5035501;28;20112;-74
2023/01/18 08:29:49;;;;;;;12.70;6.20;;;1.80;99.90;;;;;;5050164;28;20379;-74
2023/01/18 08:32:15;;;;;;;14.27;6.30;;;1.80;99.90;;;;;;5036068;28;20098;-74
2023/01/18 08:34:41;;;;;;;11.77;6.38;;;1.70;99.90;;;;;;5034979;28;20541;-73
2023/01/18 08:37:06;;;;;;;11.82;6.38;;;1.80;99.90;;;;;;5033658;28;20029;-73
2023/01/18 08:39:32;;;;;;;16.40;6.65;;;1.80;99.90;;;;;;5032150;28;20026;-73
2023/01/18 08:41:57;;;;;;;11.98;6.30;;;1.80;99.90;;;;;;5029493;28;20143;-73
2023/01/18 08:44:23;;;;;;;11.75;6.20;;;1.80;99.90;;;;;;5041326;28;20025;-73
2023/01/18 08:46:49;;;;;;;14.05;6.60;;;1.80;99.90;;;;;;5031676;28;20033;-73
2023/01/18 08:49:15;;;;;;;13.32;6.50;;;1.90;99.90;;;;;;5046073;28;20466;-73
2023/01/18 08:51:41;;;;;;;11.50;6.25;;;1.90;99.90;;;;;;5031877;28;20022;-73
2023/01/18 08:54:06;;;;;;;12.68;7.25;;;1.90;99.90;;;;;;5033538;28;20379;-73
2023/01/18 08:56:33;;;;;;;13.38;7.18;;;2.00;99.90;;;;;;5033699;28;20105;-73
2023/01/18 08:58:58;;;;;;;13.43;6.70;;;2.00;99.90;;;;;;5036970;28;20018;-73
2023/01/18 09:01:24;;;;;;;17.55;7.07;;;2.00;99.90;;;;;;5039463;28;20017;-73
2023/01/18 09:03:54;;;;;;;12.68;6.55;;;2.00;99.90;;;;;;5037490;28;20096;-73
2023/01/18 09:06:20;;;;;;;13.70;6.72;;;2.10;99.90;;;;;;5051617;28;20025;-73
2023/01/18 09:08:47;;;;;;;16.70;7.10;;;2.10;99.90;;;;;;5049518;28;20025;-73
2023/01/18 09:11:13;;;;;;;12.82;6.97;;;2.10;99.90;;;;;;5048673;28;20021;-73
2023/01/18 09:13:40;;;;;;;15.60;7.20;;;2.20;99.90;;;;;;5052560;28;20115;-73
2023/01/18 09:16:08;;;;;;;9.80;6.05;;;2.20;99.90;;;;;;5042086;28;20354;-73
2023/01/18 09:18:34;;;;;;;17.92;6.93;;;2.30;99.90;;;;;;5050016;28;20020;-73
2023/01/18 09:21:08;;;;;;;14.30;6.65;;;2.30;99.90;;;;;;5052744;28;20029;-73
2023/01/18 09:23:35;;;;;;;10.97;4.80;;;2.30;99.90;;;;;;5052908;28;20028;-73
2023/01/18 09:26:06;;;;;;;12.07;5.80;;;2.40;99.90;;;;;;5052985;28;20017;-73
2023/01/18 09:28:32;;;;;;;9.90;5.25;;;2.50;99.90;;;;;;5052439;28;20388;-73
2023/01/18 09:31:08;;;;;;;10.50;5.20;;;2.50;99.90;;;;;;5052907;28;20027;-73
2023/01/18 09:33:34;;;;;;;11.80;5.05;;;2.60;99.90;;;;;;5052707;28;20029;-73
2023/01/18 09:36:06;;;;;;;10.27;4.90;;;2.70;99.90;;;;;;5052526;28;20110;-73
2023/01/18 09:38:32;;;;;;;11.68;4.68;;;2.80;99.90;;;;;;5052344;28;20028;-73
2023/01/18 09:40:59;;;;;;;12.00;4.55;;;2.90;99.90;;;;;;5037728;28;20086;-73
2023/01/18 09:43:30;;;;;;;10.52;4.90;;;3.00;99.90;;;;;;5052033;28;20029;-73
2023/01/18 09:45:56;;;;;;;8.20;5.20;;;3.10;99.90;;;;;;5048212;28;20022;-72
2023/01/18 09:48:38;;;;;;;12.98;5.53;;;3.30;99.90;;;;;;5036940;28;20045;-72
2023/01/18 09:51:21;;;;;;;7.80;4.70;;;3.40;99.90;;;;;;5037043;28;20029;-72
2023/01/18 09:53:50;;;;;;;13.38;4.38;;;3.50;99.90;;;;;;5032900;28;20033;-72
2023/01/18 09:56:26;;;;;;;7.70;4.50;;;3.50;99.90;;;;;;5048991;28;20102;-73
2023/01/18 09:58:55;;;;;;;10.35;4.60;;;3.60;99.90;;;;;;5041559;28;20040;-73
2023/01/18 10:01:25;;;;;;;13.63;4.40;;;3.60;99.90;;;;;;5051868;28;20021;-73
2023/01/18 10:04:07;;;;;;;11.93;4.22;;;3.60;99.90;;;;;;5049868;28;20025;-73
2023/01/18 10:07:08;;;;;;;9.45;3.92;;;3.60;99.90;;;;;;5038064;28;20035;-73
2023/01/18 10:09:51;;;;;;;7.65;4.13;;;3.60;99.90;;;;;;5024368;28;20044;-73
2023/01/18 10:12:22;;;;;;;11.05;3.70;;;3.60;99.90;;;;;;5037559;28;20032;-73
2023/01/18 10:15:19;;;;;;;9.27;3.80;;;3.70;99.90;;;;;;5031881;28;20030;-73
2023/01/18 10:17:46;;;;;;;10.63;4.00;;;3.70;99.90;;;;;;5034387;28;20021;-73
2023/01/18 10:20:22;;;;;;;8.25;3.83;;;3.80;99.90;;;;;;5035479;28;21502;-72
2023/01/18 10:22:54;;;;;;;11.55;4.25;;;3.90;99.90;;;;;;5041111;28;20029;-73
2023/01/18 10:25:35;;;;;;;10.50;4.30;;;4.00;99.90;;;;;;5038631;28;20029;-72
2023/01/18 10:28:24;;;;;;;9.25;3.90;;;4.10;99.90;;;;;;5033547;28;20098;-72
2023/01/18 10:30:55;;;;;;;12.98;3.70;;;4.20;99.90;;;;;;5037433;28;20036;-72
2023/01/18 10:33:24;;;;;;;8.38;3.90;;;4.30;99.90;;;;;;5050980;28;20090;-72
2023/01/18 10:36:13;;;;;;;9.60;3.70;;;4.40;99.90;;;;;;5050112;28;20021;-73
2023/01/18 10:38:39;;;;;;;9.05;3.70;;;4.40;99.90;;;;;;5050600;28;20024;-73
2023/01/18 10:41:18;;;;;;;7.05;4.00;;;4.50;99.90;;;;;;5050994;28;20402;-72
2023/01/18 10:43:44;;;;;;;7.60;4.35;;;4.50;99.90;;;;;;5038763;28;20022;-73
2023/01/18 10:46:17;;;;;;;10.48;4.55;;;4.50;99.90;;;;;;5033114;28;20516;-73
2023/01/18 10:48:51;;;;;;;7.18;4.38;;;4.60;99.90;;;;;;5031126;28;20064;-73
2023/01/18 10:51:36;;;;;;;8.45;4.45;;;4.60;99.90;;;;;;5036254;28;20032;-73
2023/01/18 10:54:17;;;;;;;10.13;4.70;;;4.70;99.90;;;;;;5047937;28;20262;-73
2023/01/18 10:56:43;;;;;;;12.63;4.40;;;4.80;99.90;;;;;;5048046;28;20048;-72
2023/01/18 10:59:25;;;;;;;6.35;4.22;;;4.80;99.90;;;;;;5050972;28;20094;-72
2023/01/18 11:01:55;;;;;;;8.57;5.10;;;4.90;99.90;;;;;;5051087;28;20498;-73
2023/01/18 11:04:27;;;;;;;8.13;4.60;;;4.90;99.90;;;;;;5050206;28;20033;-73
2023/01/18 11:06:59;;;;;;;9.88;4.47;;;5.00;99.90;;;;;;5051379;28;20025;-72
2023/01/18 11:09:47;;;;;;;12.13;4.90;;;5.00;99.90;;;;;;5048773;28;20045;-72
2023/01/18 11:12:32;;;;;;;7.32;4.68;;;5.10;99.90;;;;;;5042177;28;20037;-72
2023/01/18 11:15:15;;;;;;;12.02;4.70;;;5.20;99.90;;;;;;5048171;28;20040;-72
2023/01/18 11:17:59;;;;;;;10.23;4.25;;;5.20;99.90;;;;;;5029655;28;20033;-72
2023/01/18 11:20:49;;;;;;;12.60;4.28;;;5.30;99.90;;;;;;5045257;28;20052;-73
2023/01/18 11:23:24;;;;;;;7.25;4.10;;;5.30;99.90;;;;;;5032008;28;20017;-73
2023/01/18 11:25:58;;;;;;;7.88;3.92;;;5.30;99.90;;;;;;5039133;28;20032;-73
2023/01/18 11:28:50;;;;;;;7.65;3.83;;;5.40;99.90;;;;;;5043933;28;20021;-73
2023/01/18 11:31:21;;;;;;;9.23;4.20;;;5.30;99.90;;;;;;5036241;28;20119;-72
2023/01/18 11:33:47;;;;;;;12.23;4.07;;;5.40;99.90;;;;;;5049612;28;20076;-73
2023/01/18 11:36:14;;;;;;;9.50;4.00;;;5.40;99.90;;;;;;5051096;28;20480;-72
2023/01/18 11:38:40;;;;;;;8.55;4.20;;;5.40;99.90;;;;;;5044189;28;20029;-73
2023/01/18 11:41:16;;;;;;;10.15;3.92;;;5.50;99.90;;;;;;5045190;28;20013;-72
2023/01/18 11:43:53;;;;;;;12.85;3.50;;;5.60;99.90;;;;;;5039688;28;20013;-72
2023/01/18 11:46:53;;;;;;;10.05;3.40;;;5.50;99.90;;;;;;5032246;28;20025;-73
2023/01/18 11:49:35;;;;;;;10.40;4.20;;;5.50;99.90;;;;;;5047983;28;20051;-73
2023/01/18 11:52:09;;;;;;;11.05;3.42;;;5.50;99.90;;;;;;5050724;28;20099;-73
2023/01/18 11:54:41;;;;;;;10.68;3.38;;;5.50;99.90;;;;;;5031973;28;20125;-73
2023/01/18 11:57:11;;;;;;;8.10;3.35;;;5.50;99.90;;;;;;5030258;28;20034;-73
2023/01/18 11:59:42;;;;;;;6.75;2.83;;;5.60;99.90;;;;;;5039380;28;20096;-73
2023/01/18 12:02:20;;;;;;;13.30;3.13;;;5.60;99.90;;;;;;5038490;28;20116;-73
2023/01/18 12:05:04;;;;;;;10.55;2.95;;;5.70;99.90;;;;;;5036231;28;20017;-73
2023/01/18 12:07:58;;;;;;;9.50;3.53;;;5.60;99.90;;;;;;5049512;28;20021;-73
2023/01/18 12:10:35;;;;;;;11.20;3.10;;;5.50;99.90;;;;;;5040645;28;20025;-73
2023/01/18 12:13:20;;;;;;;8.75;3.28;;;5.50;99.90;;;;;;5050218;28;20029;-73
2023/01/18 12:16:04;;;;;;;10.10;3.30;;;5.50;99.90;;;;;;5038294;28;20037;-73
2023/01/18 12:19:19;;;;;;;9.88;3.42;;;5.60;99.90;;;;;;5040593;28;20033;-73
2023/01/18 12:21:59;;;;;;;7.15;3.10;;;5.70;99.90;;;;;;5024725;28;20034;-73
2023/01/18 12:24:43;;;;;;;10.18;3.22;;;5.70;99.90;;;;;;5029907;28;20022;-73
2023/01/18 12:27:28;;;;;;;6.90;3.10;;;5.60;99.90;;;;;;5036239;28;20497;-73
2023/01/18 12:30:23;;;;;;;7.70;3.13;;;5.60;99.90;;;;;;5036893;28;20025;-73
2023/01/18 12:33:11;;;;;;;4.00;1.33;;;5.50;99.90;;;;;;5040264;28;20029;-73
2023/01/18 12:35:46;;;;;;;5.15;0.98;;;5.30;99.90;;;;;;5033847;28;20100;-73
2023/01/18 12:38:48;;;;;;;3.10;0.90;;;5.20;99.90;;;;;;5038855;28;20021;-73
2023/01/18 12:41:17;;;;;;;1.98;0.80;;;5.10;99.90;;;;;;5020570;28;20025;-73
2023/01/18 12:43:59;;;;;;;2.83;0.80;;;5.10;99.90;;;;;;5035389;28;20023;-73
2023/01/18 12:47:01;;;;;;;3.80;1.00;;;5.10;99.90;;;;;;5037151;28;20476;-73
2023/01/18 12:49:33;;;;;;;4.53;1.10;;;5.10;99.90;;;;;;5024623;28;20049;-73
2023/01/18 12:52:01;;;;;;;1.67;0.90;;;5.10;99.90;;;;;;5040057;28;20116;-73
2023/01/18 12:54:59;;;;;;;6.18;1.30;;;5.10;99.90;;;;;;5037149;28;20108;-73
2023/01/18 12:57:28;;;;;;;5.75;1.88;;;5.10;99.90;;;;;;5025091;28;20087;-73
2023/01/18 13:00:04;;;;;;;6.47;2.58;;;5.20;99.90;;;;;;5038448;28;20499;-73
2023/01/18 13:02:39;;;;;;;9.50;2.95;;;5.30;99.90;;;;;;5035950;28;20060;-73
2023/01/18 13:05:36;;;;;;;6.32;3.25;;;5.40;99.90;;;;;;5033898;28;20029;-72
2023/01/18 13:08:13;;;;;;;5.03;2.35;;;5.40;99.90;;;;;;5034132;28;20087;-72
2023/01/18 13:10:39;;;;;;;3.20;1.48;;;5.40;99.90;;;;;;5034983;28;20392;-73
2023/01/18 13:13:05;;;;;;;7.63;1.80;;;5.30;99.90;;;;;;5040768;28;20418;-73
2023/01/18 13:15:42;;;;;;;7.47;1.60;;;5.20;99.90;;;;;;5036888;28;20056;-73
2023/01/18 13:18:20;;;;;;;9.88;1.92;;;5.20;99.90;;;;;;5046789;28;20253;-72
2023/01/18 13:21:08;;;;;;;3.95;1.63;;;5.10;99.90;;;;;;5049857;28;20028;-73
2023/01/18 13:24:09;;;;;;;6.13;1.77;;;5.10;99.90;;;;;;5054047;28;20082;-73
2023/01/18 13:26:35;;;;;;;5.90;2.00;;;5.00;99.90;;;;;;5048343;28;20025;-73
2023/01/18 13:29:27;;;;;;;7.15;2.10;;;5.00;99.90;;;;;;5039283;28;20018;-73
2023/01/18 13:31:53;;;;;;;6.93;2.20;;;5.00;99.90;;;;;;5038530;28;20379;-73
2023/01/18 13:34:35;;;;;;;4.18;2.10;;;5.00;99.90;;;;;;5035456;28;20033;-73
2023/01/18 13:37:05;;;;;;;10.75;2.30;;;5.00;99.90;;;;;;5037599;28;20026;-73
2023/01/18 13:39:32;;;;;;;4.70;2.40;;;5.00;99.90;;;;;;5039585;28;20392;-73
2023/01/18 13:42:01;;;;;;;6.07;2.17;;;5.00;99.90;;;;;;5047140;28;20041;-73
2023/01/18 13:44:39;;;;;;;9.07;2.65;;;5.10;99.90;;;;;;5038940;28;20033;-73
2023/01/18 13:47:45;;;;;;;5.82;2.65;;;5.10;99.90;;;;;;5046011;28;20025;-73
2023/01/18 13:50:47;;;;;;;8.80;2.63;;;5.10;99.90;;;;;;5043590;28;20099;-73